sensor_id;sensor_type;location;lat;lon;timestamp;P1;durP1;ratioP1;P2;durP2;ratioP2
75021;SDS011;63583;49.976;20.182;2023-05-29T00:02:05;6.22;;;2.83;;
75021;SDS011;63583;49.976;20.182;2023-05-29T00:04:50;4.43;;;2.50;;
75021;SDS011;63583;49.976;20.182;2023-05-29T00:07:34;4.82;;;2.63;;
75021;SDS011;63583;49.976;20.182;2023-05-29T00:10:18;5.93;;;2.85;;
75021;SDS011;63583;49.976;20.182;2023-05-29T00:13:02;4.85;;;2.65;;
75021;SDS011;63583;49.976;20.182;2023-05-29T00:15:46;4.20;;;2.30;;
75021;SDS011;63583;49.976;20.182;2023-05-29T00:18:31;4.43;;;2.40;;
75021;SDS011;63583;49.976;20.182;2023-05-29T00:21:15;6.55;;;2.67;;
75021;SDS011;63583;49.976;20.182;2023-05-29T00:23:59;4.93;;;2.47;;
75021;SDS011;63583;49.976;20.182;2023-05-29T00:26:43;5.53;;;2.67;;
75021;SDS011;63583;49.976;20.182;2023-05-29T00:29:27;8.95;;;2.80;;
75021;SDS011;63583;49.976;20.182;2023-05-29T00:32:11;6.88;;;2.83;;
75021;SDS011;63583;49.976;20.182;2023-05-29T00:34:55;6.15;;;2.50;;
75021;SDS011;63583;49.976;20.182;2023-05-29T00:37:39;5.40;;;2.58;;
75021;SDS011;63583;49.976;20.182;2023-05-29T00:40:23;6.43;;;2.60;;
75021;SDS011;63583;49.976;20.182;2023-05-29T00:43:09;5.80;;;2.70;;
75021;SDS011;63583;49.976;20.182;2023-05-29T00:45:53;6.15;;;3.05;;
75021;SDS011;63583;49.976;20.182;2023-05-29T00:48:38;5.70;;;3.28;;
75021;SDS011;63583;49.976;20.182;2023-05-29T00:51:22;6.97;;;2.80;;
75021;SDS011;63583;49.976;20.182;2023-05-29T00:54:11;5.65;;;2.70;;
75021;SDS011;63583;49.976;20.182;2023-05-29T00:56:57;5.63;;;2.80;;
75021;SDS011;63583;49.976;20.182;2023-05-29T00:59:42;6.20;;;2.90;;
75021;SDS011;63583;49.976;20.182;2023-05-29T01:02:27;7.53;;;2.80;;
75021;SDS011;63583;49.976;20.182;2023-05-29T01:05:13;4.78;;;2.90;;
75021;SDS011;63583;49.976;20.182;2023-05-29T01:07:58;5.50;;;3.15;;
75021;SDS011;63583;49.976;20.182;2023-05-29T01:10:42;6.70;;;3.50;;
75021;SDS011;63583;49.976;20.182;2023-05-29T01:13:27;7.63;;;4.00;;
75021;SDS011;63583;49.976;20.182;2023-05-29T01:16:21;6.53;;;3.50;;
75021;SDS011;63583;49.976;20.182;2023-05-29T01:22:24;6.65;;;2.97;;
75021;SDS011;63583;49.976;20.182;2023-05-29T01:25:29;4.05;;;2.53;;
75021;SDS011;63583;49.976;20.182;2023-05-29T01:28:18;5.40;;;2.47;;
75021;SDS011;63583;49.976;20.182;2023-05-29T01:31:05;5.78;;;3.13;;
75021;SDS011;63583;49.976;20.182;2023-05-29T01:33:52;5.57;;;2.97;;
75021;SDS011;63583;49.976;20.182;2023-05-29T01:36:37;6.30;;;2.97;;
75021;SDS011;63583;49.976;20.182;2023-05-29T01:39:21;5.63;;;2.88;;
75021;SDS011;63583;49.976;20.182;2023-05-29T01:42:06;5.32;;;2.83;;
75021;SDS011;63583;49.976;20.182;2023-05-29T01:44:51;6.00;;;3.13;;
75021;SDS011;63583;49.976;20.182;2023-05-29T01:47:36;7.38;;;3.70;;
75021;SDS011;63583;49.976;20.182;2023-05-29T01:50:20;5.53;;;2.75;;
75021;SDS011;63583;49.976;20.182;2023-05-29T01:53:07;8.55;;;3.67;;
75021;SDS011;63583;49.976;20.182;2023-05-29T01:55:51;5.35;;;2.90;;
75021;SDS011;63583;49.976;20.182;2023-05-29T01:58:37;6.68;;;3.42;;
75021;SDS011;63583;49.976;20.182;2023-05-29T02:01:22;6.63;;;3.35;;
75021;SDS011;63583;49.976;20.182;2023-05-29T02:04:07;8.02;;;3.75;;
75021;SDS011;63583;49.976;20.182;2023-05-29T02:06:51;5.75;;;3.55;;
75021;SDS011;63583;49.976;20.182;2023-05-29T02:09:36;6.72;;;2.70;;
75021;SDS011;63583;49.976;20.182;2023-05-29T02:12:19;5.63;;;2.72;;
75021;SDS011;63583;49.976;20.182;2023-05-29T02:15:04;6.63;;;3.03;;
75021;SDS011;63583;49.976;20.182;2023-05-29T02:17:48;5.82;;;3.05;;
75021;SDS011;63583;49.976;20.182;2023-05-29T02:20:33;5.82;;;2.67;;
75021;SDS011;63583;49.976;20.182;2023-05-29T02:23:17;5.40;;;2.90;;
75021;SDS011;63583;49.976;20.182;2023-05-29T02:26:02;6.75;;;2.85;;
75021;SDS011;63583;49.976;20.182;2023-05-29T02:28:46;5.88;;;3.03;;
75021;SDS011;63583;49.976;20.182;2023-05-29T02:31:30;5.25;;;2.80;;
75021;SDS011;63583;49.976;20.182;2023-05-29T02:34:15;6.25;;;2.90;;
75021;SDS011;63583;49.976;20.182;2023-05-29T02:36:59;5.15;;;2.83;;
75021;SDS011;63583;49.976;20.182;2023-05-29T02:39:43;3.67;;;2.38;;
75021;SDS011;63583;49.976;20.182;2023-05-29T02:42:27;6.82;;;3.00;;
75021;SDS011;63583;49.976;20.182;2023-05-29T02:45:11;4.82;;;2.65;;
75021;SDS011;63583;49.976;20.182;2023-05-29T02:47:55;4.95;;;3.10;;
75021;SDS011;63583;49.976;20.182;2023-05-29T02:50:39;5.57;;;2.97;;
75021;SDS011;63583;49.976;20.182;2023-05-29T02:53:23;6.20;;;3.00;;
75021;SDS011;63583;49.976;20.182;2023-05-29T02:56:07;5.47;;;2.95;;
75021;SDS011;63583;49.976;20.182;2023-05-29T02:58:52;4.57;;;2.67;;
75021;SDS011;63583;49.976;20.182;2023-05-29T03:01:36;5.65;;;2.63;;
75021;SDS011;63583;49.976;20.182;2023-05-29T03:04:20;5.60;;;2.75;;
75021;SDS011;63583;49.976;20.182;2023-05-29T03:07:04;5.97;;;3.05;;
75021;SDS011;63583;49.976;20.182;2023-05-29T03:09:50;7.38;;;3.35;;
75021;SDS011;63583;49.976;20.182;2023-05-29T03:12:34;5.45;;;2.72;;
75021;SDS011;63583;49.976;20.182;2023-05-29T03:15:18;6.80;;;3.08;;
75021;SDS011;63583;49.976;20.182;2023-05-29T03:18:04;4.75;;;2.80;;
75021;SDS011;63583;49.976;20.182;2023-05-29T03:20:48;6.32;;;2.97;;
75021;SDS011;63583;49.976;20.182;2023-05-29T03:23:32;7.45;;;3.05;;
75021;SDS011;63583;49.976;20.182;2023-05-29T03:26:16;4.93;;;2.80;;
75021;SDS011;63583;49.976;20.182;2023-05-29T03:29:00;4.88;;;2.67;;
75021;SDS011;63583;49.976;20.182;2023-05-29T03:31:44;5.38;;;2.47;;
75021;SDS011;63583;49.976;20.182;2023-05-29T03:34:28;5.15;;;2.60;;
75021;SDS011;63583;49.976;20.182;2023-05-29T03:37:12;4.25;;;2.53;;
75021;SDS011;63583;49.976;20.182;2023-05-29T03:39:56;4.10;;;3.10;;
75021;SDS011;63583;49.976;20.182;2023-05-29T03:42:40;5.32;;;2.60;;
75021;SDS011;63583;49.976;20.182;2023-05-29T03:45:24;6.22;;;2.67;;
75021;SDS011;63583;49.976;20.182;2023-05-29T03:48:08;5.25;;;2.65;;
75021;SDS011;63583;49.976;20.182;2023-05-29T03:50:52;5.97;;;2.97;;
75021;SDS011;63583;49.976;20.182;2023-05-29T03:53:36;3.67;;;2.67;;
75021;SDS011;63583;49.976;20.182;2023-05-29T03:56:20;5.20;;;2.70;;
75021;SDS011;63583;49.976;20.182;2023-05-29T03:59:04;6.95;;;2.90;;
75021;SDS011;63583;49.976;20.182;2023-05-29T04:01:49;4.97;;;3.08;;
75021;SDS011;63583;49.976;20.182;2023-05-29T04:04:32;8.00;;;3.17;;
75021;SDS011;63583;49.976;20.182;2023-05-29T04:07:16;5.47;;;3.08;;
75021;SDS011;63583;49.976;20.182;2023-05-29T04:10:01;5.53;;;2.70;;
75021;SDS011;63583;49.976;20.182;2023-05-29T04:12:45;7.57;;;3.45;;
75021;SDS011;63583;49.976;20.182;2023-05-29T04:15:29;5.40;;;3.05;;
75021;SDS011;63583;49.976;20.182;2023-05-29T04:18:14;6.22;;;3.90;;
75021;SDS011;63583;49.976;20.182;2023-05-29T04:20:58;6.15;;;3.20;;
75021;SDS011;63583;49.976;20.182;2023-05-29T04:23:43;9.07;;;3.60;;
75021;SDS011;63583;49.976;20.182;2023-05-29T04:26:27;4.25;;;2.80;;
75021;SDS011;63583;49.976;20.182;2023-05-29T04:29:11;7.97;;;3.25;;
75021;SDS011;63583;49.976;20.182;2023-05-29T04:31:56;5.95;;;2.70;;
75021;SDS011;63583;49.976;20.182;2023-05-29T04:34:41;7.43;;;3.17;;
75021;SDS011;63583;49.976;20.182;2023-05-29T04:37:28;5.13;;;2.55;;
75021;SDS011;63583;49.976;20.182;2023-05-29T04:40:13;4.72;;;2.60;;
75021;SDS011;63583;49.976;20.182;2023-05-29T04:43:00;5.40;;;2.92;;
75021;SDS011;63583;49.976;20.182;2023-05-29T04:45:45;4.60;;;2.72;;
75021;SDS011;63583;49.976;20.182;2023-05-29T04:48:29;9.05;;;2.75;;
75021;SDS011;63583;49.976;20.182;2023-05-29T04:51:14;4.85;;;2.92;;
75021;SDS011;63583;49.976;20.182;2023-05-29T04:53:57;4.68;;;2.67;;
75021;SDS011;63583;49.976;20.182;2023-05-29T04:56:41;5.15;;;2.58;;
75021;SDS011;63583;49.976;20.182;2023-05-29T04:59:25;4.93;;;2.60;;
75021;SDS011;63583;49.976;20.182;2023-05-29T05:02:09;5.70;;;2.50;;
75021;SDS011;63583;49.976;20.182;2023-05-29T05:04:53;5.60;;;2.40;;
75021;SDS011;63583;49.976;20.182;2023-05-29T05:07:37;4.63;;;2.80;;
75021;SDS011;63583;49.976;20.182;2023-05-29T05:10:21;7.32;;;3.10;;
75021;SDS011;63583;49.976;20.182;2023-05-29T05:13:06;8.38;;;2.67;;
75021;SDS011;63583;49.976;20.182;2023-05-29T05:15:51;4.15;;;2.50;;
75021;SDS011;63583;49.976;20.182;2023-05-29T05:18:35;6.03;;;2.90;;
75021;SDS011;63583;49.976;20.182;2023-05-29T05:21:19;5.72;;;2.85;;
75021;SDS011;63583;49.976;20.182;2023-05-29T05:24:03;6.03;;;2.55;;
75021;SDS011;63583;49.976;20.182;2023-05-29T05:26:48;5.05;;;2.70;;
75021;SDS011;63583;49.976;20.182;2023-05-29T05:29:32;5.55;;;3.00;;
75021;SDS011;63583;49.976;20.182;2023-05-29T05:32:16;4.80;;;3.05;;
75021;SDS011;63583;49.976;20.182;2023-05-29T05:35:00;5.35;;;3.08;;
75021;SDS011;63583;49.976;20.182;2023-05-29T05:37:44;4.68;;;2.97;;
75021;SDS011;63583;49.976;20.182;2023-05-29T05:40:28;5.70;;;2.80;;
75021;SDS011;63583;49.976;20.182;2023-05-29T05:43:12;5.60;;;3.17;;
75021;SDS011;63583;49.976;20.182;2023-05-29T05:45:56;5.82;;;3.10;;
75021;SDS011;63583;49.976;20.182;2023-05-29T05:48:40;5.63;;;3.15;;
75021;SDS011;63583;49.976;20.182;2023-05-29T05:51:24;6.47;;;3.45;;
75021;SDS011;63583;49.976;20.182;2023-05-29T05:54:08;5.80;;;3.22;;
75021;SDS011;63583;49.976;20.182;2023-05-29T05:56:52;6.50;;;3.33;;
75021;SDS011;63583;49.976;20.182;2023-05-29T05:59:36;4.72;;;3.17;;
75021;SDS011;63583;49.976;20.182;2023-05-29T06:02:23;4.80;;;3.47;;
75021;SDS011;63583;49.976;20.182;2023-05-29T06:05:07;7.80;;;3.70;;
75021;SDS011;63583;49.976;20.182;2023-05-29T06:07:51;5.22;;;3.40;;
75021;SDS011;63583;49.976;20.182;2023-05-29T06:10:35;6.22;;;2.95;;
75021;SDS011;63583;49.976;20.182;2023-05-29T06:13:19;7.45;;;4.22;;
75021;SDS011;63583;49.976;20.182;2023-05-29T06:16:04;4.65;;;3.17;;
75021;SDS011;63583;49.976;20.182;2023-05-29T06:18:48;5.55;;;3.70;;
75021;SDS011;63583;49.976;20.182;2023-05-29T06:21:32;6.30;;;3.70;;
75021;SDS011;63583;49.976;20.182;2023-05-29T06:24:16;8.90;;;4.18;;
75021;SDS011;63583;49.976;20.182;2023-05-29T06:27:00;6.15;;;3.72;;
75021;SDS011;63583;49.976;20.182;2023-05-29T06:29:45;6.18;;;3.67;;
75021;SDS011;63583;49.976;20.182;2023-05-29T06:32:29;7.20;;;3.45;;
75021;SDS011;63583;49.976;20.182;2023-05-29T06:35:13;7.43;;;3.55;;
75021;SDS011;63583;49.976;20.182;2023-05-29T06:37:57;6.38;;;3.83;;
75021;SDS011;63583;49.976;20.182;2023-05-29T06:40:41;4.95;;;3.60;;
75021;SDS011;63583;49.976;20.182;2023-05-29T06:43:25;6.05;;;3.90;;
75021;SDS011;63583;49.976;20.182;2023-05-29T06:46:10;5.65;;;3.28;;
75021;SDS011;63583;49.976;20.182;2023-05-29T06:48:54;5.85;;;3.63;;
75021;SDS011;63583;49.976;20.182;2023-05-29T06:51:38;5.93;;;3.58;;
75021;SDS011;63583;49.976;20.182;2023-05-29T06:54:22;7.20;;;3.92;;
75021;SDS011;63583;49.976;20.182;2023-05-29T06:57:06;6.57;;;3.90;;
75021;SDS011;63583;49.976;20.182;2023-05-29T06:59:51;5.85;;;3.42;;
75021;SDS011;63583;49.976;20.182;2023-05-29T07:02:35;7.07;;;4.25;;
75021;SDS011;63583;49.976;20.182;2023-05-29T07:05:01;8.02;;;3.47;;
75021;SDS011;63583;49.976;20.182;2023-05-29T07:07:26;6.03;;;3.40;;
75021;SDS011;63583;49.976;20.182;2023-05-29T07:09:52;6.43;;;3.90;;
75021;SDS011;63583;49.976;20.182;2023-05-29T07:12:18;8.30;;;4.35;;
75021;SDS011;63583;49.976;20.182;2023-05-29T07:14:44;8.48;;;4.10;;
75021;SDS011;63583;49.976;20.182;2023-05-29T07:17:11;7.30;;;3.58;;
75021;SDS011;63583;49.976;20.182;2023-05-29T07:19:37;6.90;;;3.70;;
75021;SDS011;63583;49.976;20.182;2023-05-29T07:22:02;6.47;;;3.80;;
75021;SDS011;63583;49.976;20.182;2023-05-29T07:24:28;6.47;;;4.05;;
75021;SDS011;63583;49.976;20.182;2023-05-29T07:26:54;6.25;;;3.38;;
75021;SDS011;63583;49.976;20.182;2023-05-29T07:29:20;5.63;;;3.75;;
75021;SDS011;63583;49.976;20.182;2023-05-29T07:31:48;5.38;;;3.05;;
75021;SDS011;63583;49.976;20.182;2023-05-29T07:34:15;11.10;;;4.10;;
75021;SDS011;63583;49.976;20.182;2023-05-29T07:39:32;6.78;;;3.97;;
75021;SDS011;63583;49.976;20.182;2023-05-29T07:41:59;6.78;;;3.92;;
75021;SDS011;63583;49.976;20.182;2023-05-29T07:44:26;9.10;;;4.63;;
75021;SDS011;63583;49.976;20.182;2023-05-29T07:46:52;10.18;;;4.65;;
75021;SDS011;63583;49.976;20.182;2023-05-29T07:49:19;7.63;;;3.97;;
75021;SDS011;63583;49.976;20.182;2023-05-29T07:51:45;8.32;;;4.28;;
75021;SDS011;63583;49.976;20.182;2023-05-29T07:54:11;7.25;;;4.10;;
75021;SDS011;63583;49.976;20.182;2023-05-29T07:56:37;7.72;;;3.80;;
75021;SDS011;63583;49.976;20.182;2023-05-29T07:59:04;6.65;;;4.05;;
75021;SDS011;63583;49.976;20.182;2023-05-29T08:01:30;6.03;;;4.30;;
75021;SDS011;63583;49.976;20.182;2023-05-29T08:03:56;6.47;;;3.90;;
75021;SDS011;63583;49.976;20.182;2023-05-29T08:06:22;5.15;;;3.83;;
75021;SDS011;63583;49.976;20.182;2023-05-29T08:08:48;6.30;;;3.92;;
75021;SDS011;63583;49.976;20.182;2023-05-29T08:11:13;9.98;;;3.58;;
75021;SDS011;63583;49.976;20.182;2023-05-29T08:13:54;8.70;;;3.95;;
75021;SDS011;63583;49.976;20.182;2023-05-29T08:16:20;7.22;;;3.50;;
75021;SDS011;63583;49.976;20.182;2023-05-29T08:18:47;7.63;;;3.75;;
75021;SDS011;63583;49.976;20.182;2023-05-29T08:21:13;5.95;;;3.47;;
75021;SDS011;63583;49.976;20.182;2023-05-29T08:23:39;6.45;;;3.80;;
75021;SDS011;63583;49.976;20.182;2023-05-29T08:26:05;6.57;;;3.30;;
75021;SDS011;63583;49.976;20.182;2023-05-29T08:28:30;6.63;;;3.55;;
75021;SDS011;63583;49.976;20.182;2023-05-29T08:30:56;5.30;;;3.17;;
75021;SDS011;63583;49.976;20.182;2023-05-29T08:33:22;7.40;;;4.13;;
75021;SDS011;63583;49.976;20.182;2023-05-29T08:35:47;5.97;;;3.45;;
75021;SDS011;63583;49.976;20.182;2023-05-29T08:38:13;7.43;;;3.35;;
75021;SDS011;63583;49.976;20.182;2023-05-29T08:40:39;5.38;;;3.20;;
75021;SDS011;63583;49.976;20.182;2023-05-29T08:43:08;4.93;;;2.80;;
75021;SDS011;63583;49.976;20.182;2023-05-29T08:45:39;6.07;;;3.05;;
75021;SDS011;63583;49.976;20.182;2023-05-29T08:48:08;7.88;;;3.38;;
75021;SDS011;63583;49.976;20.182;2023-05-29T08:50:35;5.70;;;3.25;;
75021;SDS011;63583;49.976;20.182;2023-05-29T08:53:01;5.93;;;2.90;;
75021;SDS011;63583;49.976;20.182;2023-05-29T08:55:29;5.70;;;2.88;;
75021;SDS011;63583;49.976;20.182;2023-05-29T08:57:55;8.00;;;3.67;;
75021;SDS011;63583;49.976;20.182;2023-05-29T09:00:21;5.47;;;3.17;;
75021;SDS011;63583;49.976;20.182;2023-05-29T09:02:53;4.55;;;3.10;;
75021;SDS011;63583;49.976;20.182;2023-05-29T09:05:20;6.03;;;3.25;;
75021;SDS011;63583;49.976;20.182;2023-05-29T09:07:47;5.05;;;3.00;;
75021;SDS011;63583;49.976;20.182;2023-05-29T09:10:14;5.20;;;2.85;;
75021;SDS011;63583;49.976;20.182;2023-05-29T09:12:41;5.68;;;2.50;;
75021;SDS011;63583;49.976;20.182;2023-05-29T09:15:16;6.38;;;2.65;;
75021;SDS011;63583;49.976;20.182;2023-05-29T09:17:44;4.45;;;2.20;;
75021;SDS011;63583;49.976;20.182;2023-05-29T09:20:15;4.97;;;2.70;;
75021;SDS011;63583;49.976;20.182;2023-05-29T09:22:52;5.57;;;2.60;;
75021;SDS011;63583;49.976;20.182;2023-05-29T09:25:24;4.93;;;2.40;;
75021;SDS011;63583;49.976;20.182;2023-05-29T09:27:56;3.60;;;2.10;;
75021;SDS011;63583;49.976;20.182;2023-05-29T09:30:34;5.30;;;2.78;;
75021;SDS011;63583;49.976;20.182;2023-05-29T09:33:01;5.57;;;2.60;;
75021;SDS011;63583;49.976;20.182;2023-05-29T09:35:33;4.00;;;2.47;;
75021;SDS011;63583;49.976;20.182;2023-05-29T09:38:00;6.25;;;2.60;;
75021;SDS011;63583;49.976;20.182;2023-05-29T09:40:26;4.65;;;2.50;;
75021;SDS011;63583;49.976;20.182;2023-05-29T09:42:55;5.30;;;2.63;;
75021;SDS011;63583;49.976;20.182;2023-05-29T09:45:21;7.28;;;2.75;;
75021;SDS011;63583;49.976;20.182;2023-05-29T09:47:47;4.85;;;2.45;;
75021;SDS011;63583;49.976;20.182;2023-05-29T09:50:19;8.00;;;3.08;;
75021;SDS011;63583;49.976;20.182;2023-05-29T09:52:46;4.32;;;2.50;;
75021;SDS011;63583;49.976;20.182;2023-05-29T09:55:13;4.85;;;2.38;;
75021;SDS011;63583;49.976;20.182;2023-05-29T09:57:44;4.07;;;2.03;;
75021;SDS011;63583;49.976;20.182;2023-05-29T10:02:38;6.25;;;2.50;;
75021;SDS011;63583;49.976;20.182;2023-05-29T10:05:08;4.32;;;2.42;;
75021;SDS011;63583;49.976;20.182;2023-05-29T10:07:36;4.85;;;2.17;;
75021;SDS011;63583;49.976;20.182;2023-05-29T10:10:04;5.05;;;2.60;;
75021;SDS011;63583;49.976;20.182;2023-05-29T10:12:36;4.53;;;2.75;;
75021;SDS011;63583;49.976;20.182;2023-05-29T10:15:06;6.13;;;2.92;;
75021;SDS011;63583;49.976;20.182;2023-05-29T10:17:38;6.35;;;2.35;;
75021;SDS011;63583;49.976;20.182;2023-05-29T10:20:07;3.45;;;2.15;;
75021;SDS011;63583;49.976;20.182;2023-05-29T10:22:43;4.78;;;2.70;;
75021;SDS011;63583;49.976;20.182;2023-05-29T10:25:13;4.00;;;2.55;;
75021;SDS011;63583;49.976;20.182;2023-05-29T10:27:40;5.57;;;2.63;;
75021;SDS011;63583;49.976;20.182;2023-05-29T10:30:06;4.10;;;2.20;;
75021;SDS011;63583;49.976;20.182;2023-05-29T10:32:53;4.63;;;2.25;;
75021;SDS011;63583;49.976;20.182;2023-05-29T10:35:40;4.25;;;2.33;;
75021;SDS011;63583;49.976;20.182;2023-05-29T10:38:12;5.55;;;2.28;;
75021;SDS011;63583;49.976;20.182;2023-05-29T10:40:42;3.80;;;2.35;;
75021;SDS011;63583;49.976;20.182;2023-05-29T10:43:08;5.55;;;2.60;;
75021;SDS011;63583;49.976;20.182;2023-05-29T10:50:43;4.47;;;2.30;;
75021;SDS011;63583;49.976;20.182;2023-05-29T10:53:14;4.25;;;2.25;;
75021;SDS011;63583;49.976;20.182;2023-05-29T10:55:42;4.50;;;2.70;;
75021;SDS011;63583;49.976;20.182;2023-05-29T10:58:14;5.55;;;2.50;;
75021;SDS011;63583;49.976;20.182;2023-05-29T11:00:44;5.03;;;2.50;;
75021;SDS011;63583;49.976;20.182;2023-05-29T11:03:14;5.88;;;2.53;;
75021;SDS011;63583;49.976;20.182;2023-05-29T11:11:12;7.03;;;2.60;;
75021;SDS011;63583;49.976;20.182;2023-05-29T11:13:39;3.97;;;2.63;;
75021;SDS011;63583;49.976;20.182;2023-05-29T11:16:19;6.68;;;2.50;;
75021;SDS011;63583;49.976;20.182;2023-05-29T11:18:52;4.68;;;2.63;;
75021;SDS011;63583;49.976;20.182;2023-05-29T11:21:22;5.13;;;2.78;;
75021;SDS011;63583;49.976;20.182;2023-05-29T11:23:54;7.22;;;2.50;;
75021;SDS011;63583;49.976;20.182;2023-05-29T11:26:20;4.72;;;2.50;;
75021;SDS011;63583;49.976;20.182;2023-05-29T11:31:14;4.03;;;2.53;;
75021;SDS011;63583;49.976;20.182;2023-05-29T11:33:45;5.80;;;2.50;;
75021;SDS011;63583;49.976;20.182;2023-05-29T11:36:13;6.40;;;3.00;;
75021;SDS011;63583;49.976;20.182;2023-05-29T11:38:40;6.07;;;2.55;;
75021;SDS011;63583;49.976;20.182;2023-05-29T11:41:05;4.80;;;2.50;;
75021;SDS011;63583;49.976;20.182;2023-05-29T11:43:31;6.20;;;2.58;;
75021;SDS011;63583;49.976;20.182;2023-05-29T11:45:58;4.40;;;2.80;;
75021;SDS011;63583;49.976;20.182;2023-05-29T11:48:24;6.47;;;2.80;;
75021;SDS011;63583;49.976;20.182;2023-05-29T11:50:49;5.45;;;2.60;;
75021;SDS011;63583;49.976;20.182;2023-05-29T11:53:15;4.78;;;2.83;;
75021;SDS011;63583;49.976;20.182;2023-05-29T11:55:41;3.95;;;2.60;;
75021;SDS011;63583;49.976;20.182;2023-05-29T11:58:07;4.72;;;2.72;;
75021;SDS011;63583;49.976;20.182;2023-05-29T12:00:34;6.20;;;2.90;;
75021;SDS011;63583;49.976;20.182;2023-05-29T12:03:02;4.13;;;2.70;;
75021;SDS011;63583;49.976;20.182;2023-05-29T12:05:32;6.45;;;2.63;;
75021;SDS011;63583;49.976;20.182;2023-05-29T12:08:10;5.80;;;2.88;;
75021;SDS011;63583;49.976;20.182;2023-05-29T12:10:35;5.45;;;2.80;;
75021;SDS011;63583;49.976;20.182;2023-05-29T12:13:01;4.47;;;2.65;;
75021;SDS011;63583;49.976;20.182;2023-05-29T12:15:27;6.93;;;2.67;;
75021;SDS011;63583;49.976;20.182;2023-05-29T12:17:53;5.28;;;2.70;;
75021;SDS011;63583;49.976;20.182;2023-05-29T12:20:22;5.07;;;2.70;;
75021;SDS011;63583;49.976;20.182;2023-05-29T12:22:49;4.68;;;2.60;;
75021;SDS011;63583;49.976;20.182;2023-05-29T12:25:19;5.35;;;2.75;;
75021;SDS011;63583;49.976;20.182;2023-05-29T12:27:46;5.72;;;2.80;;
75021;SDS011;63583;49.976;20.182;2023-05-29T12:30:13;5.93;;;2.90;;
75021;SDS011;63583;49.976;20.182;2023-05-29T12:32:44;6.13;;;3.00;;
75021;SDS011;63583;49.976;20.182;2023-05-29T12:35:18;6.00;;;3.00;;
75021;SDS011;63583;49.976;20.182;2023-05-29T12:38:04;8.10;;;3.25;;
75021;SDS011;63583;49.976;20.182;2023-05-29T12:40:31;5.68;;;2.85;;
75021;SDS011;63583;49.976;20.182;2023-05-29T12:43:03;5.90;;;3.08;;
75021;SDS011;63583;49.976;20.182;2023-05-29T12:45:31;4.93;;;2.85;;
75021;SDS011;63583;49.976;20.182;2023-05-29T12:48:00;5.93;;;2.80;;
75021;SDS011;63583;49.976;20.182;2023-05-29T12:50:28;5.53;;;3.03;;
75021;SDS011;63583;49.976;20.182;2023-05-29T12:53:00;5.82;;;2.70;;
75021;SDS011;63583;49.976;20.182;2023-05-29T12:55:27;5.50;;;2.83;;
75021;SDS011;63583;49.976;20.182;2023-05-29T12:57:54;7.50;;;3.20;;
75021;SDS011;63583;49.976;20.182;2023-05-29T13:00:21;5.97;;;3.28;;
75021;SDS011;63583;49.976;20.182;2023-05-29T13:02:49;6.32;;;3.17;;
75021;SDS011;63583;49.976;20.182;2023-05-29T13:05:15;6.07;;;2.88;;
75021;SDS011;63583;49.976;20.182;2023-05-29T13:07:42;6.55;;;3.45;;
75021;SDS011;63583;49.976;20.182;2023-05-29T13:10:08;5.40;;;3.30;;
75021;SDS011;63583;49.976;20.182;2023-05-29T13:12:35;5.90;;;3.10;;
75021;SDS011;63583;49.976;20.182;2023-05-29T13:15:01;4.75;;;2.72;;
75021;SDS011;63583;49.976;20.182;2023-05-29T13:17:27;4.70;;;2.65;;
75021;SDS011;63583;49.976;20.182;2023-05-29T13:19:53;5.72;;;3.05;;
75021;SDS011;63583;49.976;20.182;2023-05-29T13:22:18;6.47;;;3.33;;
75021;SDS011;63583;49.976;20.182;2023-05-29T13:24:45;6.20;;;3.22;;
75021;SDS011;63583;49.976;20.182;2023-05-29T13:27:11;5.45;;;3.05;;
75021;SDS011;63583;49.976;20.182;2023-05-29T13:29:39;8.00;;;3.05;;
75021;SDS011;63583;49.976;20.182;2023-05-29T13:32:06;8.25;;;2.88;;
75021;SDS011;63583;49.976;20.182;2023-05-29T13:34:32;6.75;;;2.92;;
75021;SDS011;63583;49.976;20.182;2023-05-29T13:36:58;9.65;;;3.28;;
75021;SDS011;63583;49.976;20.182;2023-05-29T13:39:23;10.70;;;3.88;;
75021;SDS011;63583;49.976;20.182;2023-05-29T13:41:50;8.90;;;3.78;;
75021;SDS011;63583;49.976;20.182;2023-05-29T13:44:16;5.78;;;3.15;;
75021;SDS011;63583;49.976;20.182;2023-05-29T13:46:42;10.85;;;3.65;;
75021;SDS011;63583;49.976;20.182;2023-05-29T13:49:07;6.72;;;3.03;;
75021;SDS011;63583;49.976;20.182;2023-05-29T13:51:33;5.45;;;2.92;;
75021;SDS011;63583;49.976;20.182;2023-05-29T13:54:00;6.43;;;3.13;;
75021;SDS011;63583;49.976;20.182;2023-05-29T13:56:27;5.32;;;3.10;;
75021;SDS011;63583;49.976;20.182;2023-05-29T13:58:53;5.40;;;3.28;;
75021;SDS011;63583;49.976;20.182;2023-05-29T14:01:19;5.32;;;3.08;;
75021;SDS011;63583;49.976;20.182;2023-05-29T14:03:46;7.05;;;2.80;;
75021;SDS011;63583;49.976;20.182;2023-05-29T14:06:12;5.70;;;3.35;;
75021;SDS011;63583;49.976;20.182;2023-05-29T14:08:37;6.43;;;3.20;;
75021;SDS011;63583;49.976;20.182;2023-05-29T14:11:03;6.38;;;2.55;;
75021;SDS011;63583;49.976;20.182;2023-05-29T14:13:29;4.45;;;2.58;;
75021;SDS011;63583;49.976;20.182;2023-05-29T14:15:55;4.80;;;2.67;;
75021;SDS011;63583;49.976;20.182;2023-05-29T14:18:22;6.68;;;2.83;;
75021;SDS011;63583;49.976;20.182;2023-05-29T14:20:49;7.97;;;2.97;;
75021;SDS011;63583;49.976;20.182;2023-05-29T14:23:16;4.28;;;2.58;;
75021;SDS011;63583;49.976;20.182;2023-05-29T14:25:42;4.85;;;2.63;;
75021;SDS011;63583;49.976;20.182;2023-05-29T14:28:08;5.40;;;2.80;;
75021;SDS011;63583;49.976;20.182;2023-05-29T14:30:36;7.00;;;2.92;;
75021;SDS011;63583;49.976;20.182;2023-05-29T14:33:02;5.78;;;3.00;;
75021;SDS011;63583;49.976;20.182;2023-05-29T14:35:28;5.82;;;2.85;;
75021;SDS011;63583;49.976;20.182;2023-05-29T14:37:54;6.45;;;3.20;;
75021;SDS011;63583;49.976;20.182;2023-05-29T14:40:20;4.78;;;2.90;;
75021;SDS011;63583;49.976;20.182;2023-05-29T14:42:45;5.38;;;2.58;;
75021;SDS011;63583;49.976;20.182;2023-05-29T14:45:11;3.50;;;2.15;;
75021;SDS011;63583;49.976;20.182;2023-05-29T14:47:37;5.60;;;2.70;;
75021;SDS011;63583;49.976;20.182;2023-05-29T14:50:03;6.57;;;2.67;;
75021;SDS011;63583;49.976;20.182;2023-05-29T14:52:29;7.50;;;3.17;;
75021;SDS011;63583;49.976;20.182;2023-05-29T14:54:55;7.60;;;2.67;;
75021;SDS011;63583;49.976;20.182;2023-05-29T14:57:21;6.00;;;2.60;;
75021;SDS011;63583;49.976;20.182;2023-05-29T14:59:46;6.05;;;3.05;;
75021;SDS011;63583;49.976;20.182;2023-05-29T15:02:12;4.63;;;3.10;;
75021;SDS011;63583;49.976;20.182;2023-05-29T15:04:38;5.35;;;2.88;;
75021;SDS011;63583;49.976;20.182;2023-05-29T15:07:03;4.43;;;2.67;;
75021;SDS011;63583;49.976;20.182;2023-05-29T15:09:30;4.93;;;2.40;;
75021;SDS011;63583;49.976;20.182;2023-05-29T15:11:55;7.72;;;2.95;;
75021;SDS011;63583;49.976;20.182;2023-05-29T15:14:21;5.75;;;3.05;;
75021;SDS011;63583;49.976;20.182;2023-05-29T15:16:47;5.85;;;2.63;;
75021;SDS011;63583;49.976;20.182;2023-05-29T15:19:14;5.57;;;2.83;;
75021;SDS011;63583;49.976;20.182;2023-05-29T15:21:40;5.90;;;2.83;;
75021;SDS011;63583;49.976;20.182;2023-05-29T15:24:06;3.40;;;2.40;;
75021;SDS011;63583;49.976;20.182;2023-05-29T15:26:33;6.18;;;2.90;;
75021;SDS011;63583;49.976;20.182;2023-05-29T15:28:59;5.22;;;3.10;;
75021;SDS011;63583;49.976;20.182;2023-05-29T15:31:24;5.07;;;2.78;;
75021;SDS011;63583;49.976;20.182;2023-05-29T15:33:50;6.38;;;2.60;;
75021;SDS011;63583;49.976;20.182;2023-05-29T15:36:16;4.88;;;2.70;;
75021;SDS011;63583;49.976;20.182;2023-05-29T15:38:44;3.83;;;2.60;;
75021;SDS011;63583;49.976;20.182;2023-05-29T15:41:10;5.78;;;2.70;;